createdAt,value
2018-12-31T00:02:02.950Z,155.57
2018-12-31T00:04:32.487Z,162.83
2018-12-31T00:07:01.864Z,158.43
2018-12-31T00:09:31.184Z,146.03
2018-12-31T00:12:00.606Z,99.63
2018-12-31T00:14:30.240Z,126.43
2018-12-31T00:16:59.588Z,127.10
2018-12-31T00:19:28.947Z,113.57
2018-12-31T00:21:58.247Z,112.93
2018-12-31T00:24:27.585Z,104.30
2018-12-31T00:26:56.948Z,105.60
2018-12-31T00:29:26.305Z,87.87
2018-12-31T00:31:55.696Z,103.77
2018-12-31T00:34:25.031Z,113.03
2018-12-31T00:36:54.374Z,108.40
2018-12-31T00:39:23.679Z,93.97
2018-12-31T00:41:52.965Z,82.83
2018-12-31T00:44:22.295Z,77.07
2018-12-31T00:46:51.581Z,75.70
2018-12-31T00:49:20.915Z,57.97
2018-12-31T00:51:50.249Z,43.63
2018-12-31T00:54:19.798Z,43.13
2018-12-31T00:56:49.125Z,38.40
2018-12-31T00:59:18.425Z,39.27
2018-12-31T01:01:47.883Z,41.37
2018-12-31T01:04:17.213Z,45.30
2018-12-31T01:06:46.504Z,42.83
2018-12-31T01:09:15.804Z,45.20
2018-12-31T01:11:45.105Z,46.50
2018-12-31T01:14:14.459Z,41.40
2018-12-31T01:16:43.815Z,42.30
2018-12-31T01:19:13.198Z,43.30
2018-12-31T01:21:42.532Z,39.87
2018-12-31T01:24:11.946Z,40.23
2018-12-31T01:26:41.250Z,38.20
2018-12-31T01:29:10.601Z,35.13
2018-12-31T01:31:39.928Z,33.97
2018-12-31T01:34:09.249Z,34.60
2018-12-31T01:36:38.592Z,36.73
2018-12-31T01:39:07.920Z,34.37
2018-12-31T01:41:37.260Z,36.40
2018-12-31T01:44:06.591Z,39.20
2018-12-31T01:46:35.944Z,35.57
2018-12-31T01:49:05.233Z,34.57
2018-12-31T01:51:34.560Z,31.50
2018-12-31T01:54:03.906Z,31.73
2018-12-31T01:56:33.221Z,29.73
2018-12-31T01:59:02.655Z,28.87
2018-12-31T02:01:31.971Z,27.77
2018-12-31T02:04:01.284Z,28.63
2018-12-31T02:06:30.621Z,24.77
2018-12-31T02:09:00.020Z,23.03
2018-12-31T02:11:29.366Z,22.93
2018-12-31T02:13:58.785Z,21.93
2018-12-31T02:16:28.117Z,21.67
2018-12-31T02:18:57.446Z,24.13
2018-12-31T02:21:26.813Z,22.07
2018-12-31T02:23:56.155Z,24.33
2018-12-31T02:26:25.463Z,31.67
2018-12-31T02:28:54.802Z,40.40
2018-12-31T02:31:24.257Z,40.87
2018-12-31T02:33:53.655Z,39.93
2018-12-31T02:36:22.996Z,39.53
2018-12-31T02:38:52.288Z,38.47
2018-12-31T02:41:21.649Z,39.90
2018-12-31T02:43:51.017Z,40.07
2018-12-31T02:46:20.454Z,38.57
2018-12-31T02:48:49.781Z,37.07
2018-12-31T02:51:19.094Z,45.90
2018-12-31T02:53:48.440Z,42.07
2018-12-31T02:56:17.747Z,42.87
2018-12-31T02:58:47.078Z,42.57
2018-12-31T03:01:16.431Z,39.93
2018-12-31T03:03:45.744Z,30.33
2018-12-31T03:06:15.186Z,25.87
2018-12-31T03:08:44.486Z,27.07
2018-12-31T03:11:13.831Z,25.77
2018-12-31T03:13:43.175Z,24.83
2018-12-31T03:16:12.505Z,25.97
2018-12-31T03:18:41.979Z,27.43
2018-12-31T03:21:11.313Z,27.03
2018-12-31T03:23:40.663Z,25.90
2018-12-31T03:26:10.094Z,29.23
2018-12-31T03:28:39.419Z,29.57
2018-12-31T03:31:08.753Z,28.53
2018-12-31T03:33:38.067Z,26.53
2018-12-31T03:36:07.452Z,29.07
2018-12-31T03:38:36.711Z,23.73
2018-12-31T03:41:06.098Z,24.50
2018-12-31T03:43:35.415Z,27.53
2018-12-31T03:46:04.827Z,25.67
2018-12-31T03:48:34.235Z,27.77
2018-12-31T03:51:03.588Z,25.23
2018-12-31T03:53:32.874Z,22.57
2018-12-31T03:56:02.182Z,20.13
2018-12-31T03:58:31.470Z,19.30
2018-12-31T04:01:00.857Z,18.70
2018-12-31T04:03:30.216Z,21.57
2018-12-31T04:05:59.706Z,19.57
2018-12-31T04:08:29.092Z,17.60
2018-12-31T04:10:58.412Z,18.93
2018-12-31T04:13:27.771Z,18.77
2018-12-31T04:15:57.122Z,16.70
2018-12-31T04:18:26.511Z,18.63
2018-12-31T04:20:55.946Z,16.70
2018-12-31T04:23:25.509Z,16.90
2018-12-31T04:25:54.824Z,16.20
2018-12-31T04:28:24.172Z,15.20
2018-12-31T04:30:53.543Z,16.90
2018-12-31T04:33:22.942Z,16.40
2018-12-31T04:35:52.500Z,17.20
2018-12-31T04:38:21.883Z,20.33
2018-12-31T04:40:51.308Z,15.83
2018-12-31T04:43:20.646Z,16.57
2018-12-31T04:45:50.116Z,14.93
2018-12-31T04:48:19.413Z,16.47
2018-12-31T04:50:48.776Z,18.30
2018-12-31T04:53:18.135Z,17.17
2018-12-31T04:55:47.586Z,17.83
2018-12-31T04:58:23.044Z,15.10
2018-12-31T05:00:47.996Z,20.03
2018-12-31T05:03:17.413Z,20.47
2018-12-31T05:05:46.736Z,19.97
2018-12-31T05:08:16.171Z,20.23
2018-12-31T05:10:45.584Z,20.40
2018-12-31T05:13:15.123Z,18.77
2018-12-31T05:15:44.808Z,20.57
2018-12-31T05:18:14.340Z,21.10
2018-12-31T05:20:43.831Z,20.90
2018-12-31T05:23:13.196Z,20.73
2018-12-31T05:25:42.663Z,20.00
2018-12-31T05:28:12.107Z,18.37
2018-12-31T05:30:41.491Z,20.57
2018-12-31T05:33:10.924Z,21.83
2018-12-31T05:35:40.402Z,21.90
2018-12-31T05:38:09.822Z,23.77
2018-12-31T05:40:39.236Z,21.53
2018-12-31T05:43:08.650Z,22.20
2018-12-31T05:45:38.002Z,22.10
2018-12-31T05:48:07.499Z,22.80
2018-12-31T05:50:37.246Z,23.97
2018-12-31T05:53:06.717Z,29.40
2018-12-31T05:55:36.152Z,27.67
2018-12-31T05:58:05.653Z,30.13
2018-12-31T06:00:36.298Z,32.87
2018-12-31T06:03:05.811Z,29.30
2018-12-31T06:05:35.377Z,26.60
2018-12-31T06:08:04.943Z,24.83
2018-12-31T06:10:34.415Z,29.53
2018-12-31T06:13:03.856Z,32.50
2018-12-31T06:15:34.208Z,34.07
2018-12-31T06:18:04.091Z,29.40
2018-12-31T06:20:35.890Z,35.03
2018-12-31T06:23:07.880Z,30.70
2018-12-31T06:25:37.764Z,39.77
2018-12-31T06:28:08.414Z,46.20
2018-12-31T06:30:39.060Z,47.13
2018-12-31T06:33:09.073Z,45.30
2018-12-31T06:35:38.696Z,51.83
2018-12-31T06:38:08.180Z,71.60
2018-12-31T06:40:37.617Z,69.70
2018-12-31T06:43:07.094Z,82.53
2018-12-31T06:45:36.733Z,101.47
2018-12-31T06:48:06.103Z,100.30
2018-12-31T06:50:35.738Z,90.00
2018-12-31T06:53:05.110Z,77.40
2018-12-31T06:55:34.870Z,66.97
2018-12-31T06:58:04.256Z,60.30
2018-12-31T07:00:34.063Z,57.77
2018-12-31T07:03:03.748Z,60.37
2018-12-31T07:05:33.126Z,58.60
2018-12-31T07:08:02.499Z,57.20
2018-12-31T07:10:32.217Z,60.37
2018-12-31T07:13:01.551Z,53.47
2018-12-31T07:15:30.977Z,48.43
2018-12-31T07:18:00.398Z,48.47
2018-12-31T07:20:29.746Z,50.73
2018-12-31T07:23:00.532Z,43.50
2018-12-31T07:25:30.180Z,47.67
2018-12-31T07:27:59.506Z,38.20
2018-12-31T07:30:28.923Z,38.00
2018-12-31T07:32:58.519Z,42.33
2018-12-31T07:35:27.970Z,41.63
2018-12-31T07:37:57.470Z,38.93
2018-12-31T07:40:27.752Z,42.60
2018-12-31T07:42:57.383Z,42.23
2018-12-31T07:45:27.018Z,42.33
2018-12-31T07:47:56.540Z,39.27
2018-12-31T07:50:26.098Z,37.30
2018-12-31T07:52:55.563Z,34.83
2018-12-31T07:55:24.990Z,30.30
2018-12-31T07:57:54.690Z,31.10
2018-12-31T08:00:26.456Z,30.27
2018-12-31T08:02:57.482Z,31.73
2018-12-31T08:05:27.797Z,29.77
2018-12-31T08:07:57.594Z,28.87
2018-12-31T08:10:27.396Z,30.73
2018-12-31T08:12:56.795Z,27.37
2018-12-31T08:15:26.182Z,28.20
2018-12-31T08:17:55.612Z,29.40
2018-12-31T08:20:24.944Z,30.60
2018-12-31T08:22:54.278Z,30.93
2018-12-31T08:25:23.915Z,34.80
2018-12-31T08:27:53.322Z,30.43
2018-12-31T08:30:23.739Z,28.87
2018-12-31T08:32:53.819Z,32.93
2018-12-31T08:35:23.189Z,32.90
2018-12-31T08:37:52.529Z,32.20
2018-12-31T08:40:22.178Z,30.43
2018-12-31T08:42:51.556Z,32.87
2018-12-31T08:45:20.947Z,32.73
2018-12-31T08:47:50.404Z,44.47
2018-12-31T08:50:19.775Z,37.47
2018-12-31T08:52:49.374Z,33.73
2018-12-31T08:55:18.882Z,34.60
2018-12-31T08:57:48.244Z,34.93
2018-12-31T09:00:17.696Z,36.50
2018-12-31T09:02:47.060Z,35.70
2018-12-31T09:05:16.402Z,37.00
2018-12-31T09:07:45.758Z,36.40
2018-12-31T09:10:15.077Z,38.27
2018-12-31T09:12:44.440Z,40.73
2018-12-31T09:15:14.738Z,44.00
2018-12-31T09:17:44.221Z,44.50
2018-12-31T09:20:13.658Z,43.47
2018-12-31T09:22:43.055Z,40.83
2018-12-31T09:25:12.390Z,45.43
2018-12-31T09:27:42.823Z,44.60
2018-12-31T09:30:14.599Z,44.13
2018-12-31T09:32:44.189Z,46.10
2018-12-31T09:35:13.699Z,40.90
2018-12-31T09:37:43.136Z,42.23
2018-12-31T09:40:12.790Z,42.70
2018-12-31T09:42:42.279Z,39.10
2018-12-31T09:45:11.727Z,40.00
2018-12-31T09:47:41.246Z,40.10
2018-12-31T09:50:11.810Z,41.47
2018-12-31T09:52:41.376Z,41.90
2018-12-31T09:55:11.248Z,41.17
2018-12-31T09:58:25.627Z,34.37
2018-12-31T10:00:53.231Z,39.60
2018-12-31T10:03:22.693Z,38.23
2018-12-31T10:05:52.133Z,35.60
2018-12-31T10:08:21.718Z,31.07
2018-12-31T10:10:51.143Z,34.77
2018-12-31T10:13:21.940Z,35.27
2018-12-31T10:15:51.665Z,29.73
2018-12-31T10:18:21.082Z,26.37
2018-12-31T10:20:50.472Z,27.27
2018-12-31T10:23:19.845Z,25.57
2018-12-31T10:25:49.420Z,23.67
2018-12-31T10:28:19.026Z,18.53
2018-12-31T10:30:48.399Z,17.63
2018-12-31T10:33:18.073Z,12.30
2018-12-31T10:35:50.705Z,9.70
2018-12-31T10:38:31.085Z,10.73
2018-12-31T10:41:05.277Z,14.17
2018-12-31T10:43:41.813Z,10.70
2018-12-31T10:46:18.555Z,13.83
2018-12-31T10:48:53.701Z,14.30
2018-12-31T10:51:31.150Z,12.77
2018-12-31T10:54:07.932Z,13.13
2018-12-31T10:56:44.428Z,12.37
2018-12-31T10:59:14.282Z,14.77
2018-12-31T11:01:45.190Z,15.23
2018-12-31T11:04:16.951Z,17.53
2018-12-31T11:06:47.062Z,14.53
2018-12-31T11:09:17.495Z,14.33
2018-12-31T11:11:47.512Z,17.47
2018-12-31T11:14:17.278Z,16.37
2018-12-31T11:16:47.551Z,15.63
2018-12-31T11:19:17.158Z,14.97
2018-12-31T11:21:47.196Z,14.37
2018-12-31T11:24:17.494Z,15.90
2018-12-31T11:26:46.970Z,15.70
2018-12-31T11:29:17.036Z,14.43
2018-12-31T11:31:47.509Z,14.07
2018-12-31T11:34:17.248Z,15.50
2018-12-31T11:36:47.735Z,18.07
2018-12-31T11:39:17.617Z,13.53
2018-12-31T11:41:48.207Z,18.93
2018-12-31T11:44:25.693Z,14.33
2018-12-31T11:46:56.041Z,16.33
2018-12-31T11:49:25.416Z,18.30
2018-12-31T11:51:54.804Z,19.23
2018-12-31T11:54:24.133Z,17.37
2018-12-31T11:56:53.501Z,17.03
2018-12-31T11:59:22.910Z,16.13
2018-12-31T12:01:52.218Z,14.90
2018-12-31T12:04:21.608Z,19.33
2018-12-31T12:06:50.949Z,18.80
2018-12-31T12:09:20.308Z,20.67
2018-12-31T12:11:49.700Z,18.40
2018-12-31T12:14:18.991Z,19.97
2018-12-31T12:16:49.322Z,20.20
2018-12-31T12:19:24.898Z,20.03
2018-12-31T12:21:55.970Z,21.33
2018-12-31T12:24:25.945Z,19.47
2018-12-31T12:26:55.685Z,18.47
2018-12-31T12:29:27.565Z,19.90
2018-12-31T12:31:57.113Z,18.37
2018-12-31T12:34:26.995Z,16.97
2018-12-31T12:36:56.514Z,18.90
2018-12-31T12:39:26.416Z,17.73
2018-12-31T12:41:55.812Z,18.30
2018-12-31T12:44:26.187Z,19.33
2018-12-31T12:46:56.844Z,20.13
2018-12-31T12:49:26.435Z,19.60
2018-12-31T12:51:56.027Z,18.30
2018-12-31T12:54:25.622Z,20.40
2018-12-31T12:56:55.293Z,21.47
2018-12-31T12:59:24.876Z,21.20
2018-12-31T13:01:54.324Z,19.17
2018-12-31T13:04:23.762Z,21.60
2018-12-31T13:06:53.225Z,16.80
2018-12-31T13:09:22.739Z,15.07
2018-12-31T13:11:56.628Z,13.37
2018-12-31T13:14:26.523Z,16.47
2018-12-31T13:16:56.121Z,15.60
2018-12-31T13:19:25.629Z,20.87
2018-12-31T13:21:55.867Z,14.27
2018-12-31T13:24:25.572Z,13.33
2018-12-31T13:26:54.927Z,15.83
2018-12-31T13:29:24.289Z,19.53
2018-12-31T13:31:53.654Z,25.53
2018-12-31T13:34:23.025Z,27.37
2018-12-31T13:36:52.429Z,22.57
2018-12-31T13:39:21.777Z,16.47
2018-12-31T13:41:51.119Z,15.07
2018-12-31T13:44:20.485Z,14.10
2018-12-31T13:46:49.833Z,16.50
2018-12-31T13:49:19.187Z,18.80
2018-12-31T13:51:48.570Z,17.20
2018-12-31T13:54:17.923Z,24.23
2018-12-31T13:56:47.305Z,17.23
2018-12-31T13:59:16.679Z,19.13
2018-12-31T14:01:46.318Z,24.77
2018-12-31T14:04:15.780Z,17.90
2018-12-31T14:06:45.135Z,21.40
2018-12-31T14:09:14.515Z,20.03
2018-12-31T14:11:43.950Z,28.47
2018-12-31T14:14:13.538Z,28.87
2018-12-31T14:16:42.927Z,31.67
2018-12-31T14:19:12.311Z,26.03
2018-12-31T14:21:42.921Z,22.53
2018-12-31T14:24:12.592Z,30.90
2018-12-31T14:26:42.313Z,24.43
2018-12-31T14:29:11.772Z,19.00
2018-12-31T14:31:41.224Z,17.47
2018-12-31T14:34:10.576Z,16.57
2018-12-31T14:36:40.187Z,15.37
2018-12-31T14:39:09.617Z,15.80
2018-12-31T14:41:38.990Z,13.90
2018-12-31T14:44:08.319Z,18.10
2018-12-31T14:46:37.748Z,16.80
2018-12-31T14:49:07.287Z,18.63
2018-12-31T14:51:36.643Z,19.33
2018-12-31T14:54:06.063Z,17.70
2018-12-31T14:56:35.426Z,19.50
2018-12-31T14:59:04.803Z,20.30
2018-12-31T15:01:34.659Z,17.80
2018-12-31T15:04:04.198Z,19.53
2018-12-31T15:06:33.594Z,21.00
2018-12-31T15:09:03.621Z,26.37
2018-12-31T15:11:33.014Z,22.30
2018-12-31T15:14:02.458Z,23.43
2018-12-31T15:16:31.823Z,24.03
2018-12-31T15:19:01.159Z,27.77
2018-12-31T15:21:30.492Z,24.53
2018-12-31T15:23:59.880Z,27.27
2018-12-31T15:26:29.256Z,30.03
2018-12-31T15:28:58.603Z,23.20
2018-12-31T15:31:27.954Z,27.37
2018-12-31T15:33:57.283Z,28.23
2018-12-31T15:36:26.682Z,24.80
2018-12-31T15:38:56.118Z,27.17
2018-12-31T15:41:25.591Z,24.87
2018-12-31T15:43:55.012Z,27.57
2018-12-31T15:46:24.316Z,51.90
2018-12-31T15:48:53.685Z,46.93
2018-12-31T15:51:23.113Z,69.60
2018-12-31T15:53:52.609Z,401.20
2018-12-31T15:56:22.421Z,48.97
2018-12-31T15:58:51.777Z,30.47
2018-12-31T16:01:21.355Z,115.57
2018-12-31T16:03:50.892Z,726.03
2018-12-31T16:06:20.393Z,70.30
2018-12-31T16:08:49.773Z,104.97
2018-12-31T16:11:19.844Z,25.30
2018-12-31T16:13:49.394Z,27.13
2018-12-31T16:16:19.684Z,26.47
2018-12-31T16:18:50.632Z,20.33
2018-12-31T16:21:21.197Z,20.63
2018-12-31T16:23:51.744Z,20.10
2018-12-31T16:26:23.108Z,24.47
2018-12-31T16:28:54.324Z,23.13
2018-12-31T16:31:24.254Z,26.97
2018-12-31T16:33:53.849Z,22.80
2018-12-31T16:36:23.824Z,23.30
2018-12-31T16:38:53.681Z,24.40
2018-12-31T16:41:25.472Z,24.90
2018-12-31T16:44:00.474Z,29.80
2018-12-31T16:46:31.473Z,30.60
2018-12-31T16:49:01.159Z,26.77
2018-12-31T16:51:30.425Z,26.67
2018-12-31T16:53:59.788Z,27.97
2018-12-31T16:56:29.103Z,231.03
2018-12-31T16:58:58.423Z,50.83
2018-12-31T17:01:27.759Z,28.17
2018-12-31T17:03:57.061Z,27.20
2018-12-31T17:06:26.422Z,26.47
2018-12-31T17:08:55.771Z,25.80
2018-12-31T17:11:25.119Z,32.07
2018-12-31T17:13:54.512Z,28.57
2018-12-31T17:16:23.840Z,61.03
2018-12-31T17:18:53.150Z,44.70
2018-12-31T17:21:22.496Z,41.10
2018-12-31T17:23:51.851Z,30.30
2018-12-31T17:26:21.155Z,32.77
2018-12-31T17:28:50.480Z,31.57
2018-12-31T17:31:19.941Z,37.90
2018-12-31T17:33:49.271Z,41.73
2018-12-31T17:36:18.638Z,34.43
2018-12-31T17:38:49.025Z,28.17
2018-12-31T17:41:18.452Z,35.47
2018-12-31T17:43:47.816Z,30.93
2018-12-31T17:46:17.205Z,27.93
2018-12-31T17:48:46.558Z,25.97
2018-12-31T17:51:15.890Z,27.70
2018-12-31T17:53:45.230Z,35.90
2018-12-31T17:56:14.508Z,32.33
2018-12-31T17:58:43.818Z,24.77
2018-12-31T18:01:13.103Z,31.23
2018-12-31T18:03:42.414Z,59.93
2018-12-31T18:06:11.727Z,68.47
2018-12-31T18:08:41.156Z,30.17
2018-12-31T18:11:10.514Z,34.67
2018-12-31T18:13:39.871Z,31.77
2018-12-31T18:16:09.301Z,37.47
2018-12-31T18:18:38.614Z,43.27
2018-12-31T18:21:07.980Z,41.90
2018-12-31T18:23:37.424Z,39.57
2018-12-31T18:26:06.759Z,32.43
2018-12-31T18:28:36.045Z,33.40
2018-12-31T18:31:05.369Z,33.37
2018-12-31T18:33:34.726Z,33.60
2018-12-31T18:36:04.275Z,34.57
2018-12-31T18:38:34.011Z,38.90
2018-12-31T18:41:03.331Z,35.73
2018-12-31T18:43:32.659Z,33.23
2018-12-31T18:46:02.090Z,33.50
2018-12-31T18:48:31.437Z,32.97
2018-12-31T18:51:01.176Z,32.63
2018-12-31T18:53:30.573Z,29.97
2018-12-31T18:55:59.871Z,34.73
2018-12-31T18:58:29.188Z,33.20
2018-12-31T19:00:58.526Z,31.93
2018-12-31T19:03:28.053Z,32.27
2018-12-31T19:05:57.444Z,34.70
2018-12-31T19:08:26.746Z,33.60
2018-12-31T19:10:56.085Z,34.07
2018-12-31T19:13:25.421Z,35.07
2018-12-31T19:15:55.172Z,36.03
2018-12-31T19:18:24.528Z,35.40
2018-12-31T19:20:53.829Z,40.37
2018-12-31T19:23:23.178Z,37.60
2018-12-31T19:25:52.519Z,36.80
2018-12-31T19:28:22.113Z,41.57
2018-12-31T19:30:51.508Z,40.67
2018-12-31T19:33:20.865Z,43.20
2018-12-31T19:35:50.191Z,41.10
2018-12-31T19:38:19.530Z,46.23
2018-12-31T19:40:49.154Z,45.43
2018-12-31T19:43:19.420Z,51.10
2018-12-31T19:45:48.791Z,47.87
2018-12-31T19:48:18.159Z,74.57
2018-12-31T19:50:47.456Z,55.23
2018-12-31T19:53:17.091Z,252.10
2018-12-31T19:55:46.414Z,43.90
2018-12-31T19:58:15.737Z,42.57
2018-12-31T20:00:45.109Z,40.10
2018-12-31T20:03:14.453Z,36.40
2018-12-31T20:05:44.221Z,42.60
2018-12-31T20:08:13.590Z,41.57
2018-12-31T20:10:42.938Z,39.40
2018-12-31T20:13:12.259Z,42.73
2018-12-31T20:15:48.401Z,59.57
2018-12-31T20:18:12.648Z,47.07
2018-12-31T20:20:41.944Z,47.23
2018-12-31T20:23:11.303Z,43.40
2018-12-31T20:25:40.621Z,47.37
2018-12-31T20:28:10.018Z,47.00
2018-12-31T20:30:39.632Z,43.77
2018-12-31T20:33:08.961Z,40.33
2018-12-31T20:35:38.309Z,46.10
2018-12-31T20:38:07.586Z,44.80
2018-12-31T20:40:36.945Z,44.50
2018-12-31T20:43:06.285Z,47.77
2018-12-31T20:45:35.612Z,128.97
2018-12-31T20:48:04.904Z,55.07
2018-12-31T20:50:34.265Z,48.77
2018-12-31T20:53:03.640Z,49.10
2018-12-31T20:55:32.964Z,50.93
2018-12-31T20:58:02.784Z,50.37
2018-12-31T21:00:32.135Z,54.60
2018-12-31T21:03:01.507Z,73.13
2018-12-31T21:05:30.831Z,78.67
2018-12-31T21:08:00.191Z,68.37
2018-12-31T21:10:29.985Z,84.53
2018-12-31T21:12:59.318Z,90.43
2018-12-31T21:15:28.746Z,89.50
2018-12-31T21:17:58.106Z,81.23
2018-12-31T21:20:27.499Z,75.37
2018-12-31T21:22:57.297Z,73.00
2018-12-31T21:25:26.636Z,96.40
2018-12-31T21:27:55.963Z,101.17
2018-12-31T21:30:25.342Z,125.30
2018-12-31T21:32:54.714Z,127.33
2018-12-31T21:35:24.464Z,121.53
2018-12-31T21:37:53.727Z,128.23
2018-12-31T21:40:23.032Z,133.60
2018-12-31T21:42:52.395Z,133.97
2018-12-31T21:45:21.736Z,137.27
2018-12-31T21:47:51.129Z,124.63
2018-12-31T21:50:20.468Z,128.97
2018-12-31T21:52:49.773Z,126.57
2018-12-31T21:55:19.150Z,124.27
2018-12-31T21:57:48.515Z,117.60
2018-12-31T22:00:17.888Z,120.00
2018-12-31T22:02:47.210Z,219.70
2018-12-31T22:05:16.622Z,161.90
2018-12-31T22:07:46.025Z,175.27
2018-12-31T22:10:15.391Z,241.63
2018-12-31T22:12:45.802Z,218.70
2018-12-31T22:15:15.770Z,158.37
2018-12-31T22:17:45.178Z,170.93
2018-12-31T22:20:14.945Z,195.60
2018-12-31T22:22:44.283Z,250.27
2018-12-31T22:25:13.639Z,320.00
2018-12-31T22:27:43.120Z,345.23
2018-12-31T22:30:12.487Z,262.43
2018-12-31T22:32:41.823Z,295.43
2018-12-31T22:35:11.167Z,197.83
2018-12-31T22:37:40.527Z,180.50
2018-12-31T22:40:09.812Z,218.23
2018-12-31T22:42:39.137Z,190.80
2018-12-31T22:45:08.632Z,206.37
2018-12-31T22:47:38.003Z,184.53
2018-12-31T22:50:09.627Z,166.23
2018-12-31T22:52:38.954Z,139.20
2018-12-31T22:55:08.315Z,150.57
2018-12-31T22:57:37.688Z,149.43
2018-12-31T23:00:09.948Z,126.20
2018-12-31T23:02:39.649Z,124.87
2018-12-31T23:05:11.020Z,118.07
2018-12-31T23:07:40.379Z,121.23
2018-12-31T23:10:10.445Z,115.47
2018-12-31T23:12:39.779Z,103.43
2018-12-31T23:15:13.118Z,118.77
2018-12-31T23:17:42.458Z,159.30
2018-12-31T23:20:12.562Z,137.30
2018-12-31T23:22:41.900Z,110.13
2018-12-31T23:25:11.231Z,106.93
2018-12-31T23:27:40.543Z,98.27
2018-12-31T23:30:10.393Z,335.23
2018-12-31T23:32:39.817Z,435.43
2018-12-31T23:35:09.598Z,251.70
2018-12-31T23:37:41.314Z,131.90
2018-12-31T23:40:10.849Z,127.83
2018-12-31T23:42:40.219Z,116.17
2018-12-31T23:45:10.767Z,117.23
2018-12-31T23:47:40.097Z,89.43
2018-12-31T23:50:10.586Z,104.57
2018-12-31T23:52:39.921Z,91.43
2018-12-31T23:55:09.637Z,99.27
2018-12-31T23:57:39.008Z,111.10
